Airfield :
LOGIN :

Register | Disclaimer

   EN    FR    IT 

 










Legend :    VFR   Marginal VFR   IFR   Intensive IFR   Very Intensive IFR
Visi :
Ceiling :
>= 8 km
>= 3000ft
5 to 8 km
1000 to 3000 ft
1500m to 5 km
500 to 1000 ft
800 to 1500m
200 to 500 ft
< 800m
< 200 ft
Symbols :   Thunderstorms  Fog  Heavy snow  Heavy precipitations  Wind > 20 kt
SIGMETs :     Misc.  Thunderstorms  Icing  Turbulence  Mountain Waves  Volcanic Ashes






- Airport Elevation : 302 ft
- IATA code : SJY


EFSI - Seinäjoki

CURRENT METAR :
  • 200450Z AUTO 14009KT 120V180 8000 -RA FEW006 SCT009 BKN013 OVC036 06/05 Q1020

EXPIRED METARs :
  • 200420Z AUTO 15010KT 110V180 8000 -RA FEW006 SCT011 BKN014 OVC017 06/05 Q1020
  • 200350Z AUTO 14011KT 6000 -RA FEW006 SCT008 BKN010 05/05 Q1021
  • 200320Z AUTO 14009KT 110V180 7000 -RA SCT007 BKN009 OVC012 05/05 Q1020
  • 200250Z AUTO 14009KT 100V180 9999 FEW007 BKN009 BKN013 OVC016 05/05 Q1020
  • 200220Z AUTO 14011KT 110V170 9999 FEW008 BKN010 OVC013 05/05 Q1020
  • 200150Z AUTO 14010KT 100V170 9999 SCT010 OVC013 05/05 Q1020

Expired Forecast.



MET'MAP, your aeronautical weather chart ! - Copyright ORBIFLY December 2007 - Disclaimer

ORBIFLY MET'MAP TEAM :

Programming & Development : Alexandra Zaïnal
Concept & Development : Baudouin d'Aumeries
Co-Development & Prog : Marc-Olivier Méhu
Technical & hardware support : Manuel Goepfert

Contact : metmap@orbifly.com




SOURCES & CREDITS :

   NOAA